Weidmanville, Pennsylvania
Current Conditions -  °F | °C
As of 3:53 AM on Friday 28 Nov 2014 (Local Time) from KLNS Reporting Station
Few Clouds Few Clouds  
Wind Chill: 21°   Ceiling: Unl
Heat Index: 29°   Visibility: 10mi
Dew Point: 21°   Wind: 8mph
Humidity: 72%   Direction: 280°W
Pressure: 30.14"   Gusts: NA
Location:  40.1811°N, 76.176°W
Report Text: KLNS 280853Z 28007KT 10SM FEW039 M02/M06 A3014 RMK AO2 SLP211 T10171061 51010
Loading
Personal Weather Stations






























Interactive Weather Map New forecast layout! Learn more

10-Day Weather Forecast

Advertisements
Track Severe Weather on mobile